createdAt,value
2023-02-17T00:01:39.742Z,19.73
2023-02-17T00:04:07.859Z,25.80
2023-02-17T00:06:35.989Z,16.90
2023-02-17T00:09:04.608Z,18.23
2023-02-17T00:11:32.740Z,18.67
2023-02-17T00:14:01.437Z,16.97
2023-02-17T00:16:29.733Z,16.83
2023-02-17T00:19:00.984Z,16.83
2023-02-17T00:21:32.876Z,18.13
2023-02-17T00:24:01.506Z,17.00
2023-02-17T00:26:29.898Z,17.10
2023-02-17T00:28:59.783Z,15.17
2023-02-17T00:31:28.017Z,21.20
2023-02-17T00:33:56.860Z,16.90
2023-02-17T00:36:27.208Z,17.40
2023-02-17T00:38:57.524Z,16.87
2023-02-17T00:41:27.059Z,17.17
2023-02-17T00:43:55.467Z,18.80
2023-02-17T00:46:23.978Z,21.40
2023-02-17T00:48:52.243Z,20.57
2023-02-17T00:51:21.100Z,21.23
2023-02-17T00:53:51.050Z,19.43
2023-02-17T00:56:19.442Z,23.20
2023-02-17T00:58:47.573Z,22.50
2023-02-17T01:01:15.858Z,21.00
2023-02-17T01:03:44.015Z,21.07
2023-02-17T01:06:20.006Z,20.17
2023-02-17T01:08:48.254Z,20.57
2023-02-17T01:11:20.152Z,21.93
2023-02-17T01:13:48.339Z,22.07
2023-02-17T01:16:19.853Z,22.07
2023-02-17T01:18:47.983Z,17.17
2023-02-17T01:21:19.736Z,21.67
2023-02-17T01:23:49.511Z,22.30
2023-02-17T01:26:21.723Z,19.53
2023-02-17T01:28:51.385Z,19.77
2023-02-17T01:31:20.302Z,23.10
2023-02-17T01:33:48.566Z,19.03
2023-02-17T01:36:18.983Z,20.67
2023-02-17T01:38:47.589Z,17.80
2023-02-17T01:41:18.134Z,18.43
2023-02-17T01:44:21.877Z,22.77
2023-02-17T01:46:52.969Z,19.60
2023-02-17T01:49:32.682Z,20.37
2023-02-17T01:52:06.941Z,14.90
2023-02-17T01:54:42.519Z,18.70
2023-02-17T01:57:12.444Z,20.10
2023-02-17T01:59:42.389Z,18.57
2023-02-17T02:02:12.619Z,19.33
2023-02-17T02:04:45.149Z,18.90
2023-02-17T02:07:18.209Z,19.10
2023-02-17T02:09:52.078Z,20.80
2023-02-17T02:12:21.815Z,22.43
2023-02-17T02:14:51.115Z,22.40
2023-02-17T02:17:34.925Z,25.57
2023-02-17T02:20:45.176Z,26.00
2023-02-17T02:23:34.640Z,27.57
2023-02-17T02:26:33.861Z,23.57
2023-02-17T02:29:26.433Z,22.90
2023-02-17T02:32:09.435Z,27.47
2023-02-17T02:34:44.770Z,21.33
2023-02-17T02:37:18.921Z,19.47
2023-02-17T02:39:51.860Z,23.00
2023-02-17T02:42:23.255Z,27.63
2023-02-17T02:44:51.815Z,22.83
2023-02-17T02:47:43.673Z,20.60
2023-02-17T02:50:15.653Z,20.30
2023-02-17T02:52:56.835Z,22.00
2023-02-17T02:55:37.808Z,24.67
2023-02-17T02:58:14.196Z,22.87
2023-02-17T03:00:48.344Z,20.77
2023-02-17T03:03:26.394Z,24.10
2023-02-17T03:06:02.745Z,26.47
2023-02-17T03:08:35.857Z,26.00
2023-02-17T03:11:04.747Z,25.07
2023-02-17T03:13:38.060Z,27.23
2023-02-17T03:16:07.318Z,24.40
2023-02-17T03:18:36.511Z,22.20
2023-02-17T03:21:13.955Z,24.30
2023-02-17T03:23:42.074Z,24.60
2023-02-17T03:26:10.234Z,24.60
2023-02-17T03:28:38.509Z,27.20
2023-02-17T03:31:06.645Z,27.00
2023-02-17T03:33:34.781Z,26.73
2023-02-17T03:36:03.261Z,24.20
2023-02-17T03:38:32.811Z,26.67
2023-02-17T03:41:00.905Z,25.13
2023-02-17T03:43:29.013Z,21.47
2023-02-17T03:45:57.217Z,21.10
2023-02-17T03:48:25.311Z,19.67
2023-02-17T03:50:53.377Z,21.37
2023-02-17T03:53:21.553Z,24.20
2023-02-17T03:55:51.033Z,21.37
2023-02-17T03:58:19.164Z,25.90
2023-02-17T04:00:47.240Z,16.80
2023-02-17T04:03:15.327Z,22.20
2023-02-17T04:05:45.792Z,16.90
2023-02-17T04:08:14.001Z,20.70
2023-02-17T04:10:42.077Z,18.40
2023-02-17T04:13:11.862Z,22.60
2023-02-17T04:15:39.969Z,22.47
2023-02-17T04:18:08.028Z,20.77
2023-02-17T04:20:36.325Z,18.87
2023-02-17T04:23:04.434Z,18.57
2023-02-17T04:25:35.266Z,19.40
2023-02-17T04:28:03.481Z,21.67
2023-02-17T04:30:33.320Z,24.17
2023-02-17T04:33:01.790Z,18.03
2023-02-17T04:35:30.092Z,16.37
2023-02-17T04:37:58.280Z,23.10
2023-02-17T04:40:26.673Z,16.20
2023-02-17T04:42:54.753Z,20.20
2023-02-17T04:45:24.500Z,19.70
2023-02-17T04:47:54.179Z,19.20
2023-02-17T04:50:22.771Z,18.80
2023-02-17T04:52:50.872Z,18.30
2023-02-17T04:55:19.107Z,18.60
2023-02-17T04:57:47.264Z,20.53
2023-02-17T05:00:15.843Z,18.67
2023-02-17T05:02:44.718Z,26.93
2023-02-17T05:05:15.380Z,16.70
2023-02-17T05:07:43.805Z,17.83
2023-02-17T05:10:12.679Z,17.30
2023-02-17T05:12:41.144Z,16.63
2023-02-17T05:15:10.302Z,20.50
2023-02-17T05:17:38.740Z,15.60
2023-02-17T05:20:08.918Z,19.00
2023-02-17T05:22:38.456Z,25.97
2023-02-17T05:25:07.427Z,21.17
2023-02-17T05:27:35.627Z,20.70
2023-02-17T05:30:04.428Z,19.00
2023-02-17T05:32:32.568Z,21.10
2023-02-17T05:35:00.743Z,23.10
2023-02-17T05:37:28.896Z,23.07
2023-02-17T05:39:58.358Z,18.37
2023-02-17T05:42:28.933Z,16.00
2023-02-17T05:44:57.717Z,18.07
2023-02-17T05:47:27.614Z,17.20
2023-02-17T05:49:56.014Z,19.93
2023-02-17T05:52:24.144Z,19.40
2023-02-17T05:54:52.279Z,18.03
2023-02-17T05:57:22.047Z,16.93
2023-02-17T05:59:50.212Z,21.40
2023-02-17T06:02:18.437Z,16.93
2023-02-17T06:04:46.659Z,21.90
2023-02-17T06:07:15.003Z,18.80
2023-02-17T06:09:43.230Z,19.20
2023-02-17T06:12:13.021Z,22.17
2023-02-17T06:14:42.911Z,23.30
2023-02-17T06:17:11.783Z,21.73
2023-02-17T06:19:39.960Z,19.17
2023-02-17T06:22:08.070Z,23.43
2023-02-17T06:24:36.131Z,26.60
2023-02-17T06:27:07.665Z,19.07
2023-02-17T06:29:35.886Z,27.17
2023-02-17T06:32:05.678Z,22.73
2023-02-17T06:34:33.784Z,22.10
2023-02-17T06:37:02.069Z,23.07
2023-02-17T06:39:30.119Z,25.60
2023-02-17T06:41:58.193Z,22.60
2023-02-17T06:44:27.042Z,30.67
2023-02-17T06:46:55.271Z,23.97
2023-02-17T06:49:24.777Z,24.67
2023-02-17T06:51:53.146Z,31.33
2023-02-17T06:54:21.368Z,26.63
2023-02-17T06:56:49.589Z,32.90
2023-02-17T06:59:17.648Z,22.90
2023-02-17T07:01:45.804Z,22.20
2023-02-17T07:04:13.976Z,23.00
2023-02-17T07:06:43.874Z,23.23
2023-02-17T07:09:13.897Z,26.20
2023-02-17T07:11:42.982Z,21.80
2023-02-17T07:14:11.156Z,21.20
2023-02-17T07:16:40.190Z,25.40
2023-02-17T07:19:08.411Z,21.60
2023-02-17T07:21:36.521Z,18.50
2023-02-17T07:24:06.620Z,21.33
2023-02-17T07:26:37.749Z,23.67
2023-02-17T07:29:09.248Z,20.37
2023-02-17T07:31:38.800Z,28.00
2023-02-17T07:34:07.156Z,24.90
2023-02-17T07:36:35.967Z,24.50
2023-02-17T07:39:07.183Z,27.33
2023-02-17T07:41:35.446Z,23.13
2023-02-17T07:44:03.683Z,27.00
2023-02-17T07:46:31.898Z,26.27
2023-02-17T07:49:00.352Z,26.87
2023-02-17T07:51:28.878Z,41.93
2023-02-17T07:53:57.047Z,24.60
2023-02-17T07:56:26.706Z,24.43
2023-02-17T07:58:55.060Z,23.50
2023-02-17T08:01:24.777Z,45.77
2023-02-17T08:03:53.872Z,22.77
2023-02-17T08:06:24.237Z,22.93
2023-02-17T08:09:11.012Z,34.40
2023-02-17T08:11:58.555Z,24.60
2023-02-17T08:14:28.731Z,28.53
2023-02-17T08:16:57.301Z,32.83
2023-02-17T08:19:28.342Z,28.77
2023-02-17T08:21:58.359Z,28.70
2023-02-17T08:24:27.399Z,32.63
2023-02-17T08:26:57.160Z,34.40
2023-02-17T08:29:25.348Z,28.97
2023-02-17T08:31:54.518Z,28.93
2023-02-17T08:34:22.736Z,32.30
2023-02-17T08:36:50.874Z,38.00
2023-02-17T08:39:19.540Z,29.00
2023-02-17T08:41:48.020Z,39.07
2023-02-17T08:44:21.029Z,37.20
2023-02-17T08:46:51.109Z,31.93
2023-02-17T08:49:21.968Z,32.97
2023-02-17T08:51:50.934Z,31.37
2023-02-17T08:54:19.182Z,27.77
2023-02-17T08:56:47.381Z,35.30
2023-02-17T08:59:15.671Z,33.57
2023-02-17T09:01:45.794Z,32.97
2023-02-17T09:04:15.376Z,32.47
2023-02-17T09:06:45.981Z,30.93
2023-02-17T09:09:15.989Z,28.67
2023-02-17T09:11:45.263Z,27.97
2023-02-17T09:14:13.769Z,27.00
2023-02-17T09:16:42.256Z,31.60
2023-02-17T09:19:11.827Z,30.47
2023-02-17T09:21:39.901Z,27.40
2023-02-17T09:24:08.277Z,30.30
2023-02-17T09:26:37.129Z,29.67
2023-02-17T09:29:05.898Z,26.50
2023-02-17T09:31:36.111Z,24.20
2023-02-17T09:34:05.457Z,29.80
2023-02-17T09:36:38.988Z,28.97
2023-02-17T09:39:07.538Z,29.80
2023-02-17T09:41:42.738Z,28.10
2023-02-17T09:44:21.926Z,30.67
2023-02-17T09:47:02.701Z,24.73
2023-02-17T09:49:38.087Z,32.23
2023-02-17T09:52:15.689Z,26.73
2023-02-17T09:54:53.217Z,27.63
2023-02-17T09:57:25.812Z,30.40
2023-02-17T09:59:58.206Z,26.67
2023-02-17T10:02:31.019Z,35.63
2023-02-17T10:05:04.530Z,31.33
2023-02-17T10:07:41.392Z,26.63
2023-02-17T10:10:12.977Z,30.73
2023-02-17T10:12:47.171Z,27.43
2023-02-17T10:15:19.505Z,27.13
2023-02-17T10:17:53.254Z,27.27
2023-02-17T10:20:24.456Z,32.80
2023-02-17T10:22:59.018Z,33.20
2023-02-17T10:25:50.077Z,32.43
2023-02-17T10:28:23.735Z,28.30
2023-02-17T10:31:03.544Z,33.83
2023-02-17T10:33:37.687Z,31.20
2023-02-17T10:36:14.074Z,32.67
2023-02-17T10:38:51.710Z,32.63
2023-02-17T10:41:24.208Z,27.43
2023-02-17T10:43:53.230Z,33.53
2023-02-17T10:46:27.759Z,30.83
2023-02-17T10:48:58.626Z,29.47
2023-02-17T10:51:29.333Z,34.23
2023-02-17T10:54:04.284Z,28.90
2023-02-17T10:56:38.910Z,30.50
2023-02-17T10:59:14.489Z,32.17
2023-02-17T11:01:43.007Z,32.10
2023-02-17T11:04:14.043Z,31.57
2023-02-17T11:06:45.526Z,30.40
2023-02-17T11:09:28.687Z,42.83
2023-02-17T11:12:00.825Z,28.50
2023-02-17T11:14:31.462Z,37.50
2023-02-17T11:17:01.974Z,29.07
2023-02-17T11:19:34.047Z,27.87
2023-02-17T11:22:04.691Z,39.67
2023-02-17T11:24:36.510Z,28.77
2023-02-17T11:27:09.572Z,30.13
2023-02-17T11:29:38.362Z,29.60
2023-02-17T11:32:09.121Z,25.73
2023-02-17T11:34:39.907Z,27.23
2023-02-17T11:37:22.162Z,27.30
2023-02-17T11:39:53.589Z,35.97
2023-02-17T11:42:24.075Z,29.93
2023-02-17T11:44:53.052Z,28.77
2023-02-17T11:47:29.971Z,25.27
2023-02-17T11:50:10.349Z,24.90
2023-02-17T11:53:03.337Z,30.60
2023-02-17T11:55:51.887Z,32.87
2023-02-17T11:58:31.189Z,21.63
2023-02-17T12:01:12.878Z,27.77
2023-02-17T12:04:03.956Z,26.73
2023-02-17T12:06:44.537Z,26.23
2023-02-17T12:09:22.862Z,26.50
2023-02-17T12:12:02.675Z,27.70
2023-02-17T12:14:44.282Z,20.30
2023-02-17T12:17:22.915Z,23.13
2023-02-17T12:19:59.332Z,23.60
2023-02-17T12:22:34.460Z,30.23
2023-02-17T12:25:23.106Z,28.50
2023-02-17T12:28:10.577Z,24.13
2023-02-17T12:30:53.688Z,23.93
2023-02-17T12:33:47.934Z,26.27
2023-02-17T12:36:18.268Z,19.93
2023-02-17T12:38:50.930Z,22.97
2023-02-17T12:41:22.998Z,25.00
2023-02-17T12:43:56.243Z,20.40
2023-02-17T12:46:28.438Z,20.50
2023-02-17T12:49:01.305Z,21.03
2023-02-17T12:51:35.309Z,19.33
2023-02-17T12:54:09.805Z,21.60
2023-02-17T12:56:58.570Z,22.83
2023-02-17T12:59:35.064Z,19.50
2023-02-17T13:02:05.291Z,38.40
2023-02-17T13:04:35.073Z,20.17
2023-02-17T13:07:34.805Z,21.40
2023-02-17T13:10:03.522Z,20.90
2023-02-17T13:12:41.570Z,21.17
2023-02-17T13:15:31.434Z,23.67
2023-02-17T13:18:03.559Z,27.53
2023-02-17T13:20:54.224Z,19.80
2023-02-17T13:23:31.496Z,22.03
2023-02-17T13:26:09.980Z,20.27
2023-02-17T13:28:40.456Z,17.93
2023-02-17T13:31:16.545Z,22.90
2023-02-17T13:33:48.385Z,20.03
2023-02-17T13:36:21.973Z,19.27
2023-02-17T13:39:01.712Z,15.80
2023-02-17T13:41:34.579Z,25.63
2023-02-17T13:44:25.351Z,24.40
2023-02-17T13:46:57.866Z,19.77
2023-02-17T13:49:28.342Z,20.60
2023-02-17T13:51:56.464Z,18.30
2023-02-17T13:54:24.829Z,21.63
2023-02-17T13:56:53.897Z,21.50
2023-02-17T13:59:27.094Z,20.77
2023-02-17T14:01:56.611Z,17.73
2023-02-17T14:04:28.031Z,22.30
2023-02-17T14:06:59.558Z,23.00
2023-02-17T14:09:30.726Z,18.40
2023-02-17T14:12:02.250Z,22.33
2023-02-17T14:14:33.971Z,23.73
2023-02-17T14:17:05.780Z,19.83
2023-02-17T14:19:44.301Z,19.90
2023-02-17T14:22:25.977Z,19.40
2023-02-17T14:25:01.011Z,19.10
2023-02-17T14:27:29.304Z,20.47
2023-02-17T14:29:57.419Z,22.07
2023-02-17T14:32:32.754Z,22.13
2023-02-17T14:35:21.265Z,19.23
2023-02-17T14:37:50.480Z,25.27
2023-02-17T14:40:21.332Z,21.93
2023-02-17T14:42:49.492Z,21.43
2023-02-17T14:45:18.134Z,24.20
2023-02-17T14:47:48.191Z,26.13
2023-02-17T14:50:17.542Z,22.43
2023-02-17T14:52:47.545Z,23.53
2023-02-17T14:55:20.388Z,27.37
2023-02-17T14:57:48.541Z,22.10
2023-02-17T15:00:18.050Z,26.77
2023-02-17T15:02:47.902Z,22.90
2023-02-17T15:05:16.099Z,26.83
2023-02-17T15:07:44.381Z,32.00
2023-02-17T15:10:19.404Z,27.90
2023-02-17T15:12:48.172Z,25.20
2023-02-17T15:15:17.582Z,24.70
2023-02-17T15:17:47.335Z,30.97
2023-02-17T15:20:17.401Z,33.50
2023-02-17T15:22:45.782Z,25.60
2023-02-17T15:25:16.016Z,33.03
2023-02-17T15:27:44.750Z,34.20
2023-02-17T15:30:14.691Z,29.37
2023-02-17T15:32:43.180Z,29.90
2023-02-17T15:35:21.304Z,33.17
2023-02-17T15:37:49.831Z,32.10
2023-02-17T15:40:20.203Z,32.23
2023-02-17T15:42:54.276Z,28.03
2023-02-17T15:45:23.692Z,29.10
2023-02-17T15:47:53.767Z,32.83
2023-02-17T15:50:24.054Z,32.37
2023-02-17T15:52:52.556Z,28.80
2023-02-17T15:55:21.588Z,31.97
2023-02-17T15:57:52.279Z,41.47
2023-02-17T16:00:23.875Z,30.50
2023-02-17T16:02:52.631Z,29.47
2023-02-17T16:05:24.533Z,31.57
2023-02-17T16:07:53.209Z,35.30
2023-02-17T16:10:23.650Z,38.80
2023-02-17T16:12:53.474Z,33.60
2023-02-17T16:15:23.936Z,35.83
2023-02-17T16:17:52.494Z,42.27
2023-02-17T16:20:24.894Z,46.43
2023-02-17T16:22:53.274Z,47.47
2023-02-17T16:25:23.078Z,48.47
2023-02-17T16:27:53.282Z,56.57
2023-02-17T16:30:25.464Z,41.40
2023-02-17T16:32:53.904Z,40.30
2023-02-17T16:35:25.892Z,46.90
2023-02-17T16:37:57.167Z,48.00
2023-02-17T16:40:27.411Z,42.67
2023-02-17T16:42:55.780Z,36.33
2023-02-17T16:45:25.737Z,40.30
2023-02-17T16:47:57.019Z,42.63
2023-02-17T16:50:29.027Z,46.87
2023-02-17T16:53:00.336Z,59.83
2023-02-17T16:55:30.343Z,57.40
2023-02-17T16:57:59.188Z,50.27
2023-02-17T17:00:30.186Z,56.07
2023-02-17T17:02:59.258Z,52.57
2023-02-17T17:05:30.250Z,75.37
2023-02-17T17:07:58.538Z,78.60
2023-02-17T17:10:29.599Z,88.20
2023-02-17T17:12:57.714Z,97.20
2023-02-17T17:15:26.035Z,107.50
2023-02-17T17:17:58.419Z,99.00
2023-02-17T17:20:32.021Z,76.03
2023-02-17T17:23:01.057Z,62.57
2023-02-17T17:25:30.909Z,49.90
2023-02-17T17:27:59.458Z,48.60
2023-02-17T17:30:32.651Z,48.90
2023-02-17T17:33:00.828Z,55.37
2023-02-17T17:35:31.329Z,58.40
2023-02-17T17:38:00.116Z,63.67
2023-02-17T17:40:30.608Z,63.87
2023-02-17T17:42:59.057Z,55.03
2023-02-17T17:45:27.612Z,60.70
2023-02-17T17:47:55.717Z,50.77
2023-02-17T17:50:25.346Z,59.30
2023-02-17T17:52:54.956Z,55.13
2023-02-17T17:55:23.040Z,78.43
2023-02-17T17:57:51.145Z,66.13
2023-02-17T18:00:20.278Z,72.43
2023-02-17T18:02:48.573Z,68.07
2023-02-17T18:05:16.926Z,65.00
2023-02-17T18:07:47.960Z,54.10
2023-02-17T18:10:17.975Z,53.10
2023-02-17T18:12:47.747Z,62.87
2023-02-17T18:15:16.873Z,58.27
2023-02-17T18:17:45.221Z,61.13
2023-02-17T18:20:13.880Z,61.33
2023-02-17T18:22:42.402Z,54.03
2023-02-17T18:25:11.232Z,53.17
2023-02-17T18:27:42.319Z,44.93
2023-02-17T18:30:12.121Z,46.70
2023-02-17T18:32:40.240Z,48.73
2023-02-17T18:35:09.135Z,44.63
2023-02-17T18:37:37.473Z,41.47
2023-02-17T18:40:06.357Z,48.00
2023-02-17T18:42:34.632Z,40.33
2023-02-17T18:45:04.948Z,52.70
2023-02-17T18:47:33.409Z,43.23
2023-02-17T18:50:01.526Z,45.20
2023-02-17T18:52:29.610Z,48.70
2023-02-17T18:54:57.715Z,46.53
2023-02-17T18:57:25.926Z,71.77
2023-02-17T18:59:53.994Z,56.93
2023-02-17T19:02:23.540Z,48.93
2023-02-17T19:04:54.364Z,43.63
2023-02-17T19:07:23.126Z,44.40
2023-02-17T19:09:53.332Z,44.47
2023-02-17T19:12:21.846Z,38.23
2023-02-17T19:14:55.882Z,41.53
2023-02-17T19:17:26.657Z,35.70
2023-02-17T19:19:54.747Z,33.17
2023-02-17T19:22:22.974Z,37.50
2023-02-17T19:24:53.123Z,41.30
2023-02-17T19:27:21.876Z,30.27
2023-02-17T19:29:50.064Z,27.83
2023-02-17T19:32:18.298Z,33.93
2023-02-17T19:34:48.029Z,32.47
2023-02-17T19:37:16.437Z,34.43
2023-02-17T19:39:45.663Z,28.87
2023-02-17T19:42:13.918Z,29.50
2023-02-17T19:44:42.164Z,31.03
2023-02-17T19:47:10.330Z,22.73
2023-02-17T19:49:38.457Z,25.50
2023-02-17T19:52:08.921Z,24.30
2023-02-17T19:54:37.121Z,25.70
2023-02-17T19:57:05.393Z,26.83
2023-02-17T19:59:34.465Z,36.53
2023-02-17T20:02:02.764Z,35.17
2023-02-17T20:04:30.878Z,29.70
2023-02-17T20:06:59.030Z,29.23
2023-02-17T20:09:28.696Z,24.43
2023-02-17T20:11:56.907Z,25.40
2023-02-17T20:14:25.023Z,25.70
2023-02-17T20:16:55.691Z,22.33
2023-02-17T20:19:24.198Z,20.57
2023-02-17T20:21:52.863Z,17.90
2023-02-17T20:24:21.440Z,17.33
2023-02-17T20:26:53.731Z,19.23
2023-02-17T20:29:22.464Z,22.83
2023-02-17T20:31:51.023Z,22.73
2023-02-17T20:34:28.243Z,20.53
2023-02-17T20:36:57.439Z,19.10
2023-02-17T20:39:26.456Z,24.37
2023-02-17T20:41:56.966Z,21.53
2023-02-17T20:44:27.731Z,23.57
2023-02-17T20:46:57.072Z,26.30
2023-02-17T20:49:25.690Z,19.23
2023-02-17T20:51:54.445Z,21.33
2023-02-17T20:54:24.726Z,19.83
2023-02-17T20:56:53.403Z,18.77
2023-02-17T20:59:23.095Z,24.23
2023-02-17T21:01:51.193Z,19.50
2023-02-17T21:04:19.567Z,18.53
2023-02-17T21:06:48.205Z,24.30
2023-02-17T21:09:19.065Z,18.53
2023-02-17T21:11:47.994Z,14.63
2023-02-17T21:14:16.431Z,17.60
2023-02-17T21:16:46.499Z,18.47
2023-02-17T21:19:14.872Z,21.30
2023-02-17T21:21:42.975Z,19.53
2023-02-17T21:24:11.400Z,15.67
2023-02-17T21:26:39.765Z,19.47
2023-02-17T21:29:08.168Z,19.43
2023-02-17T21:31:37.216Z,18.80
2023-02-17T21:34:08.883Z,16.00
2023-02-17T21:36:37.063Z,17.13
2023-02-17T21:39:05.928Z,21.13
2023-02-17T21:41:34.215Z,18.17
2023-02-17T21:44:19.935Z,18.83
2023-02-17T21:46:48.082Z,19.23
2023-02-17T21:49:17.740Z,31.83
2023-02-17T21:51:45.925Z,20.40
2023-02-17T21:54:14.172Z,27.03
2023-02-17T21:56:42.426Z,19.67
2023-02-17T21:59:10.759Z,19.70
2023-02-17T22:01:39.026Z,21.93
2023-02-17T22:04:07.223Z,18.47
2023-02-17T22:06:38.566Z,16.07
2023-02-17T22:09:08.075Z,15.60
2023-02-17T22:11:37.951Z,16.03
2023-02-17T22:14:10.218Z,19.33
2023-02-17T22:16:39.423Z,17.30
2023-02-17T22:19:11.050Z,19.00
2023-02-17T22:21:42.461Z,22.83
2023-02-17T22:24:10.794Z,31.73
2023-02-17T22:26:38.972Z,18.37
2023-02-17T22:29:08.125Z,17.70
2023-02-17T22:31:36.485Z,17.87
2023-02-17T22:34:07.626Z,21.50
2023-02-17T22:36:38.204Z,18.50
2023-02-17T22:39:09.574Z,22.23
2023-02-17T22:41:38.885Z,21.17
2023-02-17T22:44:07.217Z,18.50
2023-02-17T22:46:36.102Z,17.27
2023-02-17T22:49:04.451Z,15.97
2023-02-17T22:51:36.656Z,17.97
2023-02-17T22:54:05.364Z,22.83
2023-02-17T22:56:35.020Z,24.30
2023-02-17T22:59:05.008Z,18.80
2023-02-17T23:01:35.074Z,20.43
2023-02-17T23:04:03.740Z,22.70
2023-02-17T23:06:35.061Z,20.47
2023-02-17T23:09:04.172Z,18.67
2023-02-17T23:11:51.120Z,18.10
2023-02-17T23:14:21.138Z,16.73
2023-02-17T23:16:49.825Z,15.00
2023-02-17T23:19:20.253Z,15.63
2023-02-17T23:21:51.459Z,15.93
2023-02-17T23:24:21.469Z,16.93
2023-02-17T23:26:51.570Z,21.10
2023-02-17T23:29:20.376Z,17.30
2023-02-17T23:31:48.736Z,17.47
2023-02-17T23:34:17.884Z,17.80
2023-02-17T23:36:47.069Z,17.20
2023-02-17T23:39:16.178Z,17.23
2023-02-17T23:41:44.490Z,16.80
2023-02-17T23:44:16.296Z,16.10
2023-02-17T23:46:46.019Z,13.37
2023-02-17T23:49:16.706Z,20.87
2023-02-17T23:51:46.925Z,18.57
2023-02-17T23:54:15.785Z,16.60
2023-02-17T23:56:44.083Z,16.67
2023-02-17T23:59:13.798Z,18.63
